sensor_id;sensor_type;location;lat;lon;timestamp;pressure;altitude;pressure_sealevel;temperature;humidity
38716;BME280;24833;49.324;8.694;2023-04-07T00:01:51;99815.34;;;7.14;76.12
38716;BME280;24833;49.324;8.694;2023-04-07T00:04:18;99813.72;;;7.13;73.69
38716;BME280;24833;49.324;8.694;2023-04-07T00:06:45;99820.66;;;7.14;75.54
38716;BME280;24833;49.324;8.694;2023-04-07T00:09:12;99803.91;;;7.13;74.52
38716;BME280;24833;49.324;8.694;2023-04-07T00:11:39;99813.06;;;7.10;73.20
38716;BME280;24833;49.324;8.694;2023-04-07T00:14:06;99813.25;;;7.09;75.71
38716;BME280;24833;49.324;8.694;2023-04-07T00:16:33;99805.41;;;7.07;76.25
38716;BME280;24833;49.324;8.694;2023-04-07T00:19:00;99808.91;;;7.08;75.59
38716;BME280;24833;49.324;8.694;2023-04-07T00:21:27;99800.09;;;7.07;74.62
38716;BME280;24833;49.324;8.694;2023-04-07T00:23:54;99800.09;;;7.07;74.40
38716;BME280;24833;49.324;8.694;2023-04-07T00:26:21;99798.28;;;7.08;72.14
38716;BME280;24833;49.324;8.694;2023-04-07T00:28:49;99791.31;;;7.07;72.97
38716;BME280;24833;49.324;8.694;2023-04-07T00:31:16;99785.38;;;7.05;75.26
38716;BME280;24833;49.324;8.694;2023-04-07T00:33:43;99787.00;;;7.06;74.63
38716;BME280;24833;49.324;8.694;2023-04-07T00:36:10;99781.06;;;7.04;75.44
38716;BME280;24833;49.324;8.694;2023-04-07T00:38:37;99779.22;;;7.04;72.98
38716;BME280;24833;49.324;8.694;2023-04-07T00:41:04;99767.78;;;7.04;72.77
38716;BME280;24833;49.324;8.694;2023-04-07T00:43:31;99776.75;;;7.03;73.47
38716;BME280;24833;49.324;8.694;2023-04-07T00:45:58;99770.63;;;7.02;74.24
38716;BME280;24833;49.324;8.694;2023-04-07T00:48:26;99768.78;;;7.03;72.96
38716;BME280;24833;49.324;8.694;2023-04-07T00:50:53;99760.81;;;7.03;73.51
38716;BME280;24833;49.324;8.694;2023-04-07T00:53:20;99758.31;;;7.01;74.18
38716;BME280;24833;49.324;8.694;2023-04-07T00:55:47;99748.72;;;7.00;74.06
38716;BME280;24833;49.324;8.694;2023-04-07T00:58:15;99739.91;;;7.00;74.80
38716;BME280;24833;49.324;8.694;2023-04-07T01:00:48;99752.19;;;7.01;75.58
38716;BME280;24833;49.324;8.694;2023-04-07T01:03:24;99746.88;;;7.01;73.47
38716;BME280;24833;49.324;8.694;2023-04-07T01:06:00;99743.59;;;6.99;74.29
38716;BME280;24833;49.324;8.694;2023-04-07T01:09:04;99736.44;;;6.99;73.44
38716;BME280;24833;49.324;8.694;2023-04-07T01:14:16;99731.13;;;6.99;72.58
38716;BME280;24833;49.324;8.694;2023-04-07T01:16:51;99727.66;;;6.99;71.11
38716;BME280;24833;49.324;8.694;2023-04-07T01:19:38;99724.00;;;7.00;75.02
38716;BME280;24833;49.324;8.694;2023-04-07T01:22:14;99718.69;;;7.00;71.06
38716;BME280;24833;49.324;8.694;2023-04-07T01:28:52;99715.38;;;6.98;70.03
38716;BME280;24833;49.324;8.694;2023-04-07T01:31:14;99721.53;;;6.98;72.59
38716;BME280;24833;49.324;8.694;2023-04-07T01:33:44;99719.50;;;7.00;72.66
38716;BME280;24833;49.324;8.694;2023-04-07T01:36:12;99714.38;;;6.99;73.54
38716;BME280;24833;49.324;8.694;2023-04-07T01:38:43;99722.34;;;6.99;72.24
38716;BME280;24833;49.324;8.694;2023-04-07T01:41:11;99720.69;;;6.98;74.00
38716;BME280;24833;49.324;8.694;2023-04-07T01:43:41;99712.91;;;6.96;73.34
38716;BME280;24833;49.324;8.694;2023-04-07T01:46:10;99717.03;;;6.99;73.83
38716;BME280;24833;49.324;8.694;2023-04-07T01:48:39;99716.22;;;6.98;71.99
38716;BME280;24833;49.324;8.694;2023-04-07T01:51:07;99715.38;;;6.98;73.13
38716;BME280;24833;49.324;8.694;2023-04-07T01:53:34;99708.25;;;6.98;74.21
38716;BME280;24833;49.324;8.694;2023-04-07T01:56:04;99697.63;;;6.98;71.24
38716;BME280;24833;49.324;8.694;2023-04-07T01:58:33;99698.63;;;6.97;70.76
38716;BME280;24833;49.324;8.694;2023-04-07T02:01:02;99694.97;;;6.98;69.52
38716;BME280;24833;49.324;8.694;2023-04-07T02:03:55;99703.75;;;6.99;69.55
38716;BME280;24833;49.324;8.694;2023-04-07T02:06:31;99701.09;;;6.99;72.13
38716;BME280;24833;49.324;8.694;2023-04-07T02:09:05;99707.59;;;6.96;73.66
38716;BME280;24833;49.324;8.694;2023-04-07T02:11:33;99703.13;;;6.97;71.36
38716;BME280;24833;49.324;8.694;2023-04-07T02:14:04;99696.97;;;6.96;71.62
38716;BME280;24833;49.324;8.694;2023-04-07T02:16:44;99696.16;;;6.96;71.42
38716;BME280;24833;49.324;8.694;2023-04-07T02:19:15;99694.47;;;6.95;70.68
38716;BME280;24833;49.324;8.694;2023-04-07T02:21:43;99692.84;;;6.94;71.13
38716;BME280;24833;49.324;8.694;2023-04-07T02:24:11;99691.19;;;6.93;72.73
38716;BME280;24833;49.324;8.694;2023-04-07T02:26:38;99687.69;;;6.92;72.87
38716;BME280;24833;49.324;8.694;2023-04-07T02:29:05;99685.88;;;6.93;71.94
38716;BME280;24833;49.324;8.694;2023-04-07T02:31:32;99685.88;;;6.93;72.98
38716;BME280;24833;49.324;8.694;2023-04-07T02:33:59;99686.88;;;6.92;73.27
38716;BME280;24833;49.324;8.694;2023-04-07T02:36:27;99688.72;;;6.91;73.56
38716;BME280;24833;49.324;8.694;2023-04-07T02:38:54;99678.91;;;6.92;72.31
38716;BME280;24833;49.324;8.694;2023-04-07T02:41:21;99674.63;;;6.91;72.25
38716;BME280;24833;49.324;8.694;2023-04-07T02:43:48;99677.28;;;6.91;72.27
38716;BME280;24833;49.324;8.694;2023-04-07T02:46:15;99674.63;;;6.91;72.62
38716;BME280;24833;49.324;8.694;2023-04-07T02:48:42;99674.78;;;6.89;73.81
38716;BME280;24833;49.324;8.694;2023-04-07T02:51:09;99672.97;;;6.90;73.13
38716;BME280;24833;49.324;8.694;2023-04-07T02:53:36;99667.81;;;6.88;73.53
38716;BME280;24833;49.324;8.694;2023-04-07T02:56:04;99669.50;;;6.89;73.17
38716;BME280;24833;49.324;8.694;2023-04-07T02:58:31;99661.69;;;6.88;74.16
38716;BME280;24833;49.324;8.694;2023-04-07T03:00:58;99664.31;;;6.88;73.41
38716;BME280;24833;49.324;8.694;2023-04-07T03:03:29;99660.03;;;6.87;74.59
38716;BME280;24833;49.324;8.694;2023-04-07T03:06:10;99658.00;;;6.89;73.39
38716;BME280;24833;49.324;8.694;2023-04-07T03:08:48;99662.50;;;6.88;72.27
38716;BME280;24833;49.324;8.694;2023-04-07T03:11:15;99667.81;;;6.88;73.30
38716;BME280;24833;49.324;8.694;2023-04-07T03:13:43;99660.03;;;6.87;73.16
38716;BME280;24833;49.324;8.694;2023-04-07T03:16:11;99654.72;;;6.87;73.98
38716;BME280;24833;49.324;8.694;2023-04-07T03:18:51;99656.72;;;6.85;74.13
38716;BME280;24833;49.324;8.694;2023-04-07T03:21:20;99651.25;;;6.86;72.26
38716;BME280;24833;49.324;8.694;2023-04-07T03:23:47;99653.72;;;6.88;71.99
38716;BME280;24833;49.324;8.694;2023-04-07T03:26:14;99651.88;;;6.88;73.89
38716;BME280;24833;49.324;8.694;2023-04-07T03:28:44;99649.41;;;6.87;72.61
38716;BME280;24833;49.324;8.694;2023-04-07T03:31:12;99644.09;;;6.87;72.50
38716;BME280;24833;49.324;8.694;2023-04-07T03:33:39;99641.44;;;6.87;73.13
38716;BME280;24833;49.324;8.694;2023-04-07T03:36:07;99638.78;;;6.87;73.96
38716;BME280;24833;49.324;8.694;2023-04-07T03:38:34;99645.75;;;6.88;72.93
38716;BME280;24833;49.324;8.694;2023-04-07T03:41:04;99639.81;;;6.86;74.45
38716;BME280;24833;49.324;8.694;2023-04-07T03:43:31;99639.81;;;6.86;72.58
38716;BME280;24833;49.324;8.694;2023-04-07T03:46:00;99641.25;;;6.88;70.90
38716;BME280;24833;49.324;8.694;2023-04-07T03:48:27;99642.09;;;6.89;72.04
38716;BME280;24833;49.324;8.694;2023-04-07T03:51:03;99641.13;;;6.90;72.77
38716;BME280;24833;49.324;8.694;2023-04-07T03:53:31;99645.41;;;6.91;73.78
38716;BME280;24833;49.324;8.694;2023-04-07T03:56:03;99641.94;;;6.90;71.66
38716;BME280;24833;49.324;8.694;2023-04-07T03:58:48;99641.75;;;6.92;71.65
38716;BME280;24833;49.324;8.694;2023-04-07T04:01:26;99640.75;;;6.93;71.64
38716;BME280;24833;49.324;8.694;2023-04-07T04:03:55;99637.28;;;6.92;72.53
38716;BME280;24833;49.324;8.694;2023-04-07T04:06:28;99637.28;;;6.92;72.16
38716;BME280;24833;49.324;8.694;2023-04-07T04:09:03;99632.16;;;6.91;71.29
38716;BME280;24833;49.324;8.694;2023-04-07T04:11:34;99634.81;;;6.91;71.97
38716;BME280;24833;49.324;8.694;2023-04-07T04:14:03;99638.28;;;6.91;71.96
38716;BME280;24833;49.324;8.694;2023-04-07T04:16:31;99640.09;;;6.91;71.57
38716;BME280;24833;49.324;8.694;2023-04-07T04:19:05;99635.63;;;6.91;71.09
38716;BME280;24833;49.324;8.694;2023-04-07T04:21:32;99636.63;;;6.90;72.56
38716;BME280;24833;49.324;8.694;2023-04-07T04:23:59;99633.16;;;6.90;70.78
38716;BME280;24833;49.324;8.694;2023-04-07T04:26:28;99636.78;;;6.89;71.62
38716;BME280;24833;49.324;8.694;2023-04-07T04:29:00;99639.44;;;6.89;72.32
38716;BME280;24833;49.324;8.694;2023-04-07T04:31:29;99640.28;;;6.89;72.72
38716;BME280;24833;49.324;8.694;2023-04-07T04:33:56;99640.28;;;6.89;72.42
38716;BME280;24833;49.324;8.694;2023-04-07T04:36:24;99646.56;;;6.88;71.38
38716;BME280;24833;49.324;8.694;2023-04-07T04:38:56;99657.19;;;6.88;70.62
38716;BME280;24833;49.324;8.694;2023-04-07T04:41:23;99648.41;;;6.88;71.17
38716;BME280;24833;49.324;8.694;2023-04-07T04:43:51;99651.88;;;6.88;71.52
38716;BME280;24833;49.324;8.694;2023-04-07T04:46:22;99653.72;;;6.88;70.93
38716;BME280;24833;49.324;8.694;2023-04-07T04:48:49;99643.28;;;6.86;70.09
38716;BME280;24833;49.324;8.694;2023-04-07T04:51:19;99644.09;;;6.87;70.11
38716;BME280;24833;49.324;8.694;2023-04-07T04:53:51;99651.06;;;6.88;71.41
38716;BME280;24833;49.324;8.694;2023-04-07T04:56:21;99654.72;;;6.87;71.27
38716;BME280;24833;49.324;8.694;2023-04-07T04:58:49;99665.00;;;6.90;70.03
38716;BME280;24833;49.324;8.694;2023-04-07T05:01:28;99659.50;;;6.91;71.64
38716;BME280;24833;49.324;8.694;2023-04-07T05:04:06;99662.16;;;6.91;71.69
38716;BME280;24833;49.324;8.694;2023-04-07T05:06:36;99661.34;;;6.91;70.94
38716;BME280;24833;49.324;8.694;2023-04-07T05:09:07;99653.38;;;6.91;69.92
38716;BME280;24833;49.324;8.694;2023-04-07T05:11:42;99656.03;;;6.91;69.49
38716;BME280;24833;49.324;8.694;2023-04-07T05:14:09;99656.84;;;6.91;70.26
38716;BME280;24833;49.324;8.694;2023-04-07T05:16:41;99657.69;;;6.92;70.09
38716;BME280;24833;49.324;8.694;2023-04-07T05:19:14;99654.03;;;6.93;70.74
38716;BME280;24833;49.324;8.694;2023-04-07T05:21:41;99659.34;;;6.93;70.40
38716;BME280;24833;49.324;8.694;2023-04-07T05:24:09;99659.97;;;6.95;70.55
38716;BME280;24833;49.324;8.694;2023-04-07T05:26:37;99653.84;;;6.94;70.38
38716;BME280;24833;49.324;8.694;2023-04-07T05:29:04;99653.69;;;6.96;69.85
38716;BME280;24833;49.324;8.694;2023-04-07T05:31:32;99654.66;;;6.95;69.64
38716;BME280;24833;49.324;8.694;2023-04-07T05:34:03;99653.00;;;6.94;69.94
38716;BME280;24833;49.324;8.694;2023-04-07T05:36:35;99652.00;;;6.95;71.17
38716;BME280;24833;49.324;8.694;2023-04-07T05:39:02;99655.50;;;6.95;69.70
38716;BME280;24833;49.324;8.694;2023-04-07T05:41:29;99653.69;;;6.96;70.32
38716;BME280;24833;49.324;8.694;2023-04-07T05:43:56;99653.69;;;6.96;70.46
38716;BME280;24833;49.324;8.694;2023-04-07T05:46:24;99652.00;;;6.95;71.18
38716;BME280;24833;49.324;8.694;2023-04-07T05:48:55;99650.19;;;6.95;70.15
38716;BME280;24833;49.324;8.694;2023-04-07T05:51:24;99652.19;;;6.93;69.84
38716;BME280;24833;49.324;8.694;2023-04-07T05:53:54;99656.69;;;6.93;69.82
38716;BME280;24833;49.324;8.694;2023-04-07T05:56:23;99664.63;;;6.93;70.48
38716;BME280;24833;49.324;8.694;2023-04-07T05:58:50;99659.50;;;6.91;70.51
38716;BME280;24833;49.324;8.694;2023-04-07T06:01:18;99665.66;;;6.92;70.30
38716;BME280;24833;49.324;8.694;2023-04-07T06:03:46;99667.28;;;6.93;70.49
38716;BME280;24833;49.324;8.694;2023-04-07T06:06:25;99661.97;;;6.93;70.17
38716;BME280;24833;49.324;8.694;2023-04-07T06:08:52;99664.63;;;6.93;71.91
38716;BME280;24833;49.324;8.694;2023-04-07T06:11:21;99665.47;;;6.93;71.18
38716;BME280;24833;49.324;8.694;2023-04-07T06:13:49;99664.47;;;6.94;72.65
38716;BME280;24833;49.324;8.694;2023-04-07T06:16:16;99663.31;;;6.97;72.62
38716;BME280;24833;49.324;8.694;2023-04-07T06:18:45;99658.63;;;6.99;72.05
38716;BME280;24833;49.324;8.694;2023-04-07T06:21:12;99667.72;;;7.04;72.58
38716;BME280;24833;49.324;8.694;2023-04-07T06:23:39;99661.22;;;7.07;72.96
38716;BME280;24833;49.324;8.694;2023-04-07T06:26:10;99665.00;;;7.13;71.35
38716;BME280;24833;49.324;8.694;2023-04-07T06:28:40;99660.66;;;7.20;72.29
38716;BME280;24833;49.324;8.694;2023-04-07T06:31:07;99657.13;;;7.27;71.68
38716;BME280;24833;49.324;8.694;2023-04-07T06:33:36;99660.56;;;7.36;71.72
38716;BME280;24833;49.324;8.694;2023-04-07T06:36:03;99656.00;;;7.45;72.12
38716;BME280;24833;49.324;8.694;2023-04-07T06:38:30;99656.56;;;7.55;72.43
38716;BME280;24833;49.324;8.694;2023-04-07T06:40:57;99644.88;;;7.64;71.14
38716;BME280;24833;49.324;8.694;2023-04-07T06:43:24;99655.06;;;7.75;71.50
38716;BME280;24833;49.324;8.694;2023-04-07T06:46:00;99651.97;;;7.86;73.10
38716;BME280;24833;49.324;8.694;2023-04-07T06:48:27;99659.69;;;7.96;72.20
38716;BME280;24833;49.324;8.694;2023-04-07T06:50:54;99650.63;;;8.05;71.42
38716;BME280;24833;49.324;8.694;2023-04-07T06:53:21;99652.38;;;8.13;72.32
38716;BME280;24833;49.324;8.694;2023-04-07T06:55:48;99647.97;;;8.20;73.08
38716;BME280;24833;49.324;8.694;2023-04-07T06:58:17;99647.22;;;8.26;72.77
38716;BME280;24833;49.324;8.694;2023-04-07T07:00:44;99646.88;;;8.29;73.46
38716;BME280;24833;49.324;8.694;2023-04-07T07:03:11;99637.50;;;8.33;71.83
38716;BME280;24833;49.324;8.694;2023-04-07T07:05:39;99642.31;;;8.38;71.70
38716;BME280;24833;49.324;8.694;2023-04-07T07:08:06;99646.06;;;8.43;71.05
38716;BME280;24833;49.324;8.694;2023-04-07T07:10:33;99650.00;;;8.48;71.30
38716;BME280;24833;49.324;8.694;2023-04-07T07:13:00;99643.94;;;8.54;71.50
38716;BME280;24833;49.324;8.694;2023-04-07T07:15:27;99643.19;;;8.60;71.52
38716;BME280;24833;49.324;8.694;2023-04-07T07:17:53;99643.28;;;8.66;71.08
38716;BME280;24833;49.324;8.694;2023-04-07T07:20:21;99644.56;;;8.70;70.92
38716;BME280;24833;49.324;8.694;2023-04-07T07:22:49;99645.66;;;8.76;70.40
38716;BME280;24833;49.324;8.694;2023-04-07T07:25:16;99643.25;;;8.81;70.45
38716;BME280;24833;49.324;8.694;2023-04-07T07:27:43;99650.47;;;8.87;70.90
38716;BME280;24833;49.324;8.694;2023-04-07T07:30:10;99643.59;;;8.93;69.86
38716;BME280;24833;49.324;8.694;2023-04-07T07:32:38;99652.66;;;8.98;70.03
38716;BME280;24833;49.324;8.694;2023-04-07T07:35:05;99650.28;;;9.04;69.67
38716;BME280;24833;49.324;8.694;2023-04-07T07:37:32;99650.34;;;9.10;70.48
38716;BME280;24833;49.324;8.694;2023-04-07T07:39:59;99643.25;;;9.17;70.17
38716;BME280;24833;49.324;8.694;2023-04-07T07:42:26;99644.94;;;9.25;70.01
38716;BME280;24833;49.324;8.694;2023-04-07T07:44:53;99652.19;;;9.31;70.23
38716;BME280;24833;49.324;8.694;2023-04-07T07:47:21;99649.38;;;9.39;70.02
38716;BME280;24833;49.324;8.694;2023-04-07T07:49:48;99651.91;;;9.47;69.68
38716;BME280;24833;49.324;8.694;2023-04-07T07:52:15;99654.28;;;9.57;69.93
38716;BME280;24833;49.324;8.694;2023-04-07T07:54:43;99648.81;;;9.65;70.28
38716;BME280;24833;49.324;8.694;2023-04-07T07:57:10;99655.00;;;9.72;69.61
38716;BME280;24833;49.324;8.694;2023-04-07T07:59:37;99659.38;;;9.80;69.77
38716;BME280;24833;49.324;8.694;2023-04-07T08:02:07;99655.72;;;9.88;69.38
38716;BME280;24833;49.324;8.694;2023-04-07T08:04:35;99659.69;;;9.92;69.02
38716;BME280;24833;49.324;8.694;2023-04-07T08:07:03;99663.59;;;9.96;69.01
38716;BME280;24833;49.324;8.694;2023-04-07T08:09:30;99663.00;;;10.00;69.17
38716;BME280;24833;49.324;8.694;2023-04-07T08:12:00;99671.25;;;10.05;69.65
38716;BME280;24833;49.324;8.694;2023-04-07T08:14:27;99667.41;;;10.15;69.74
38716;BME280;24833;49.324;8.694;2023-04-07T08:16:54;99664.63;;;10.23;69.56
38716;BME280;24833;49.324;8.694;2023-04-07T08:19:21;99669.81;;;10.31;69.43
38716;BME280;24833;49.324;8.694;2023-04-07T08:21:48;99669.25;;;10.42;69.62
38716;BME280;24833;49.324;8.694;2023-04-07T08:24:15;99672.63;;;10.57;70.09
38716;BME280;24833;49.324;8.694;2023-04-07T08:26:42;99670.03;;;10.71;70.25
38716;BME280;24833;49.324;8.694;2023-04-07T08:29:11;99663.06;;;10.83;69.82
38716;BME280;24833;49.324;8.694;2023-04-07T08:31:38;99669.50;;;10.95;69.84
38716;BME280;24833;49.324;8.694;2023-04-07T08:34:05;99670.16;;;11.04;69.27
38716;BME280;24833;49.324;8.694;2023-04-07T08:36:32;99679.63;;;11.13;69.74
38716;BME280;24833;49.324;8.694;2023-04-07T08:38:59;99668.53;;;11.23;69.50
38716;BME280;24833;49.324;8.694;2023-04-07T08:41:36;99674.31;;;11.33;69.45
38716;BME280;24833;49.324;8.694;2023-04-07T08:44:04;99673.31;;;11.40;69.50
38716;BME280;24833;49.324;8.694;2023-04-07T08:46:33;99680.31;;;11.48;69.17
38716;BME280;24833;49.324;8.694;2023-04-07T08:49:01;99675.56;;;11.57;69.59
38716;BME280;24833;49.324;8.694;2023-04-07T08:51:31;99679.50;;;11.67;69.66
38716;BME280;24833;49.324;8.694;2023-04-07T08:54:11;99684.25;;;11.79;69.36
38716;BME280;24833;49.324;8.694;2023-04-07T08:56:40;99690.03;;;11.82;69.10
38716;BME280;24833;49.324;8.694;2023-04-07T08:59:11;99692.53;;;11.84;69.09
38716;BME280;24833;49.324;8.694;2023-04-07T09:01:39;99679.53;;;11.87;68.97
38716;BME280;24833;49.324;8.694;2023-04-07T09:04:09;99688.19;;;11.89;68.78
38716;BME280;24833;49.324;8.694;2023-04-07T09:06:37;99690.47;;;11.92;68.78
38716;BME280;24833;49.324;8.694;2023-04-07T09:09:04;99700.94;;;11.94;68.78
38716;BME280;24833;49.324;8.694;2023-04-07T09:11:38;99701.97;;;11.93;68.71
38716;BME280;24833;49.324;8.694;2023-04-07T09:14:06;99692.91;;;11.94;68.46
38716;BME280;24833;49.324;8.694;2023-04-07T09:16:34;99692.53;;;11.97;68.58
38716;BME280;24833;49.324;8.694;2023-04-07T09:19:01;99701.97;;;11.99;68.82
38716;BME280;24833;49.324;8.694;2023-04-07T09:21:50;99696.84;;;12.05;68.60
38716;BME280;24833;49.324;8.694;2023-04-07T09:24:26;99697.44;;;12.07;68.71
38716;BME280;24833;49.324;8.694;2023-04-07T09:27:14;99697.44;;;12.13;68.50
38716;BME280;24833;49.324;8.694;2023-04-07T09:29:45;99703.63;;;12.20;68.85
38716;BME280;24833;49.324;8.694;2023-04-07T09:32:36;99698.66;;;12.31;69.00
38716;BME280;24833;49.324;8.694;2023-04-07T09:35:08;99692.44;;;12.37;68.75
38716;BME280;24833;49.324;8.694;2023-04-07T09:37:35;99696.16;;;12.42;68.50
38716;BME280;24833;49.324;8.694;2023-04-07T09:40:03;99697.16;;;12.48;68.85
38716;BME280;24833;49.324;8.694;2023-04-07T09:42:31;99692.84;;;12.53;68.78
38716;BME280;24833;49.324;8.694;2023-04-07T09:45:01;99698.59;;;12.57;68.84
38716;BME280;24833;49.324;8.694;2023-04-07T09:47:31;99696.09;;;12.62;68.38
38716;BME280;24833;49.324;8.694;2023-04-07T09:49:58;99696.75;;;12.64;68.70
38716;BME280;24833;49.324;8.694;2023-04-07T09:52:49;99697.34;;;12.66;68.28
38716;BME280;24833;49.324;8.694;2023-04-07T09:55:23;99699.19;;;12.66;68.08
38716;BME280;24833;49.324;8.694;2023-04-07T09:57:50;99700.84;;;12.67;68.04
38716;BME280;24833;49.324;8.694;2023-04-07T10:00:17;99694.44;;;12.68;68.41
38716;BME280;24833;49.324;8.694;2023-04-07T10:02:45;99686.81;;;12.71;68.58
38716;BME280;24833;49.324;8.694;2023-04-07T10:05:12;99698.13;;;12.80;68.80
38716;BME280;24833;49.324;8.694;2023-04-07T10:07:39;99700.16;;;12.85;68.14
38716;BME280;24833;49.324;8.694;2023-04-07T10:10:09;99696.00;;;12.89;68.06
38716;BME280;24833;49.324;8.694;2023-04-07T10:12:37;99703.00;;;12.90;67.81
38716;BME280;24833;49.324;8.694;2023-04-07T10:15:05;99700.16;;;12.91;67.92
38716;BME280;24833;49.324;8.694;2023-04-07T10:17:37;99708.16;;;12.98;68.51
38716;BME280;24833;49.324;8.694;2023-04-07T10:20:07;99695.09;;;13.08;68.93
38716;BME280;24833;49.324;8.694;2023-04-07T10:22:36;99691.34;;;13.22;69.07
38716;BME280;24833;49.324;8.694;2023-04-07T10:25:08;99693.94;;;13.35;68.76
38716;BME280;24833;49.324;8.694;2023-04-07T10:27:57;99701.50;;;13.52;69.18
38716;BME280;24833;49.324;8.694;2023-04-07T10:30:30;99698.09;;;13.63;69.27
38716;BME280;24833;49.324;8.694;2023-04-07T10:32:58;99696.38;;;13.75;69.45
38716;BME280;24833;49.324;8.694;2023-04-07T10:35:25;99704.91;;;13.90;69.24
38716;BME280;24833;49.324;8.694;2023-04-07T10:40:35;99701.41;;;14.15;69.01
38716;BME280;24833;49.324;8.694;2023-04-07T10:43:03;99709.81;;;14.25;68.76
38716;BME280;24833;49.324;8.694;2023-04-07T10:48:19;99701.34;;;14.47;68.99
38716;BME280;24833;49.324;8.694;2023-04-07T10:51:10;99705.84;;;14.53;68.36
38716;BME280;24833;49.324;8.694;2023-04-07T10:54:16;99699.41;;;14.54;68.48
38716;BME280;24833;49.324;8.694;2023-04-07T10:59:32;99704.03;;;14.47;67.90
38716;BME280;24833;49.324;8.694;2023-04-07T11:04:45;99705.22;;;14.51;68.12
38716;BME280;24833;49.324;8.694;2023-04-07T11:07:13;99695.38;;;14.63;69.11
38716;BME280;24833;49.324;8.694;2023-04-07T11:09:42;99693.28;;;14.83;69.73
38716;BME280;24833;49.324;8.694;2023-04-07T11:12:22;99689.22;;;15.11;70.02
38716;BME280;24833;49.324;8.694;2023-04-07T11:14:49;99686.94;;;15.26;68.96
38716;BME280;24833;49.324;8.694;2023-04-07T11:17:16;99687.44;;;15.35;68.80
38716;BME280;24833;49.324;8.694;2023-04-07T11:19:53;99691.69;;;15.42;68.18
38716;BME280;24833;49.324;8.694;2023-04-07T11:22:20;99692.88;;;15.46;68.11
38716;BME280;24833;49.324;8.694;2023-04-07T11:24:50;99693.59;;;15.53;68.18
38716;BME280;24833;49.324;8.694;2023-04-07T11:27:17;99697.63;;;15.63;68.50
38716;BME280;24833;49.324;8.694;2023-04-07T11:29:44;99702.47;;;15.84;69.08
38716;BME280;24833;49.324;8.694;2023-04-07T11:32:11;99704.72;;;16.11;69.86
38716;BME280;24833;49.324;8.694;2023-04-07T11:34:39;99706.94;;;16.37;69.76
38716;BME280;24833;49.324;8.694;2023-04-07T11:37:24;99702.59;;;16.83;70.45
38716;BME280;24833;49.324;8.694;2023-04-07T11:39:57;99705.03;;;17.25;69.34
38716;BME280;24833;49.324;8.694;2023-04-07T11:42:38;99702.94;;;17.27;65.95
38716;BME280;24833;49.324;8.694;2023-04-07T11:45:15;99706.47;;;17.15;64.63
38716;BME280;24833;49.324;8.694;2023-04-07T11:47:43;99703.81;;;17.04;65.08
38716;BME280;24833;49.324;8.694;2023-04-07T11:50:10;99716.88;;;16.95;65.43
38716;BME280;24833;49.324;8.694;2023-04-07T11:52:46;99717.00;;;16.88;64.79
38716;BME280;24833;49.324;8.694;2023-04-07T11:55:20;99712.56;;;16.82;65.10
38716;BME280;24833;49.324;8.694;2023-04-07T11:57:49;99712.03;;;17.09;66.66
38716;BME280;24833;49.324;8.694;2023-04-07T12:00:19;99712.94;;;17.43;67.41
38716;BME280;24833;49.324;8.694;2023-04-07T12:02:46;99718.03;;;17.56;66.01
38716;BME280;24833;49.324;8.694;2023-04-07T12:05:14;99716.75;;;17.59;65.82
38716;BME280;24833;49.324;8.694;2023-04-07T12:07:52;99714.09;;;17.47;64.69
38716;BME280;24833;49.324;8.694;2023-04-07T12:10:22;99720.94;;;17.38;64.71
38716;BME280;24833;49.324;8.694;2023-04-07T12:12:51;99714.28;;;17.57;66.42
38716;BME280;24833;49.324;8.694;2023-04-07T12:15:19;99718.03;;;17.85;65.43
38716;BME280;24833;49.324;8.694;2023-04-07T12:17:47;99715.28;;;18.13;65.88
38716;BME280;24833;49.324;8.694;2023-04-07T12:20:15;99716.31;;;18.29;64.92
38716;BME280;24833;49.324;8.694;2023-04-07T12:22:42;99716.47;;;18.22;63.22
38716;BME280;24833;49.324;8.694;2023-04-07T12:25:09;99728.28;;;18.00;62.69
38716;BME280;24833;49.324;8.694;2023-04-07T12:27:36;99726.28;;;17.78;62.68
38716;BME280;24833;49.324;8.694;2023-04-07T12:30:10;99728.28;;;17.54;62.56
38716;BME280;24833;49.324;8.694;2023-04-07T12:32:39;99732.69;;;17.32;62.48
38716;BME280;24833;49.324;8.694;2023-04-07T12:35:06;99738.53;;;17.12;62.75
38716;BME280;24833;49.324;8.694;2023-04-07T12:37:33;99739.97;;;16.91;62.70
38716;BME280;24833;49.324;8.694;2023-04-07T12:40:00;99744.94;;;16.71;62.32
38716;BME280;24833;49.324;8.694;2023-04-07T12:42:27;99744.44;;;16.50;62.07
38716;BME280;24833;49.324;8.694;2023-04-07T12:44:54;99744.59;;;16.32;62.11
38716;BME280;24833;49.324;8.694;2023-04-07T12:47:22;99741.75;;;16.15;62.60
38716;BME280;24833;49.324;8.694;2023-04-07T12:49:49;99742.19;;;16.00;62.15
38716;BME280;24833;49.324;8.694;2023-04-07T12:52:16;99740.28;;;15.89;62.32
38716;BME280;24833;49.324;8.694;2023-04-07T12:54:43;99737.56;;;15.77;62.73
38716;BME280;24833;49.324;8.694;2023-04-07T12:57:11;99730.31;;;15.66;62.55
38716;BME280;24833;49.324;8.694;2023-04-07T12:59:38;99741.81;;;15.55;62.91
38716;BME280;24833;49.324;8.694;2023-04-07T13:02:05;99733.81;;;15.48;62.38
38716;BME280;24833;49.324;8.694;2023-04-07T13:04:33;99741.41;;;15.40;62.47
38716;BME280;24833;49.324;8.694;2023-04-07T13:07:01;99739.25;;;15.30;62.83
38716;BME280;24833;49.324;8.694;2023-04-07T13:09:28;99742.25;;;15.22;62.44
38716;BME280;24833;49.324;8.694;2023-04-07T13:11:55;99749.59;;;15.15;62.66
38716;BME280;24833;49.324;8.694;2023-04-07T13:14:23;99745.94;;;15.09;62.96
38716;BME280;24833;49.324;8.694;2023-04-07T13:16:50;99744.13;;;15.03;62.96
38716;BME280;24833;49.324;8.694;2023-04-07T13:19:18;99746.91;;;14.96;62.35
38716;BME280;24833;49.324;8.694;2023-04-07T13:21:44;99752.75;;;14.93;62.80
38716;BME280;24833;49.324;8.694;2023-04-07T13:24:14;99747.66;;;14.85;62.66
38716;BME280;24833;49.324;8.694;2023-04-07T13:26:41;99741.91;;;14.82;62.71
38716;BME280;24833;49.324;8.694;2023-04-07T13:29:08;99738.63;;;14.80;63.18
38716;BME280;24833;49.324;8.694;2023-04-07T13:31:35;99742.13;;;14.80;63.04
38716;BME280;24833;49.324;8.694;2023-04-07T13:34:02;99742.56;;;14.77;63.06
38716;BME280;24833;49.324;8.694;2023-04-07T13:36:29;99748.56;;;14.79;63.12
38716;BME280;24833;49.324;8.694;2023-04-07T13:38:56;99745.25;;;14.77;62.91